Connexion S'enregistrer

Connexion à votre compte

Identifiant
Mot de passe
Maintenir la connexion active sur ce site

Créer un compte

Pour valider ce formulaire, vous devez remplir tous les champs.
Nom
Identifiant
Mot de passe
Répétez le mot de passe
Adresse e-mail
Répétez l'adresse e-mail

METAR/TAF de Chambéry

[source: ADDS]
METAR
LFLB 210000Z AUTO 29004KT 250V340 CAVOK 15/10 Q1021 NOSIG =
TAF LFLB 202300Z 2100/2124 VRB03KT CAVOK TEMPO 2100/2104 36010KT
TAF
TAF LFLB 202300Z 2100/2124 VRB03KT CAVOK TEMPO 2100/2104 36010KT =
SR / SS: 05:21 / 17:37 UTC (Lever/Coucher du soleil le 2019-09-21)

 

Webcam de l'Aéroclub - Parking Lima et SW (réactualisation : 5min)

Cliquer ici pour une animation sur les 3 dernières heures / Cliquer sur l'image pour l'agrandir dans une nouvelle fenêtre

 

Webcam de l'Aéroclub - Manche à air et WA (réactualisation : 5min)

Cliquer ici pour une animation sur les 3 dernières heures / Cliquer sur l'image pour l'agrandir dans une nouvelle fenêtre

 

JSN Boot template designed by JoomlaShine.com